This is the latest recevied weather packets stored in our database for station/object N7NIP. If no packets are shown the sender has not sent any weather packets the latest 10 day(s).
| Time | Temp. | Humidity | Pressure | Rain* | Wind** | Luminosity | Snow |
|---|---|---|---|---|---|---|---|
| 1777479487 | 12.22° C | 75% | 1039.3 hPa | 0 mm | - | 406 W/m² | - |
| 1777479183 | 11.67° C | 77% | 1039.4 hPa | 0 mm | - | 394 W/m² | - |
| 1777478880 | 11.67° C | 79% | 1039.4 hPa | 0 mm | - | 377 W/m² | - |
| 1777478576 | 11.67° C | 77% | 1039.2 hPa | 0 mm | - | 376 W/m² | - |
| 1777478274 | 12.22° C | 76% | 1039.4 hPa | 0 mm | - | 388 W/m² | - |
| 1777477970 | 11.67° C | 77% | 1039.4 hPa | 0 mm | - | 407 W/m² | - |
| 1777477665 | 11.11° C | 80% | 1039.6 hPa | 0 mm | - | 406 W/m² | - |
| 1777477363 | 11.11° C | 81% | 1039.4 hPa | 0 mm | - | 352 W/m² | - |
| 1777477059 | 11.67° C | 80% | 1039.6 hPa | 0 mm | - | 311 W/m² | - |
| 1777476757 | 11.67° C | 82% | 1039.6 hPa | 0 mm | - | 288 W/m² | - |
| 1777476453 | 10° C | 99% | 1039.6 hPa | 0 mm | - | 273 W/m² | - |
| 1777476150 | 9.44° C | 99% | 1039.6 hPa | 0 mm | - | 256 W/m² | - |
| 1777475845 | 8.33° C | 99% | 1039.8 hPa | 0 mm | - | 207 W/m² | - |
| 1777475541 | 7.78° C | 99% | 1039.5 hPa | 0 mm | - | 180 W/m² | - |
| 1777475238 | 7.78° C | 99% | 1039.5 hPa | 0 mm | - | 94 W/m² | - |
| 1777474933 | 7.22° C | 99% | 1039.6 hPa | 0 mm | - | 105 W/m² | - |
| 1777474629 | 6.67° C | 99% | 1039.7 hPa | 0 mm | - | 88 W/m² | - |
| 1777474326 | 6.11° C | 99% | 1039.7 hPa | 0 mm | - | 72 W/m² | - |
| 1777474023 | 6.11° C | 99% | 1039.6 hPa | 0 mm | - | 56 W/m² | - |
| 1777473721 | 6.11° C | 99% | 1039.8 hPa | 0 mm | - | 53 W/m² | - |
| 1777473417 | 5.56° C | 99% | 1039.6 hPa | 0 mm | - | 52 W/m² | - |
| 1777473113 | 5.56° C | 99% | 1039.7 hPa | 0 mm | - | 50 W/m² | - |
| 1777472809 | 5° C | 99% | 1039.9 hPa | 0 mm | - | 49 W/m² | - |
| 1777472506 | 5° C | 99% | 1039.6 hPa | 0 mm | - | 46 W/m² | - |
| 1777472203 | 5° C | 99% | 1039.7 hPa | 0 mm | - | 45 W/m² | - |
* Rain latest hour (hover to see other rain measurements)
** Current wind speed in m/s (hover to see current wind gust speed)